createdAt,value
2019-01-30T00:10:43.078Z,4.60
2019-01-30T00:15:34.454Z,4.20
2019-01-30T00:41:48.824Z,4.90
2019-01-30T00:52:56.207Z,5.70
2019-01-30T00:57:44.154Z,4.80
2019-01-30T01:02:35.439Z,3.70
2019-01-30T01:07:26.926Z,4.00
2019-01-30T01:12:18.341Z,3.10
2019-01-30T01:17:10.048Z,2.80
2019-01-30T01:22:02.554Z,3.40
2019-01-30T01:26:55.857Z,4.10
2019-01-30T01:31:46.856Z,2.80
2019-01-30T01:36:38.248Z,3.10
2019-01-30T01:41:31.729Z,2.80
2019-01-30T01:46:22.799Z,3.40
2019-01-30T01:51:14.366Z,3.20
2019-01-30T01:56:06.095Z,2.70
2019-01-30T02:00:57.614Z,3.00
2019-01-30T02:05:49.474Z,3.50
2019-01-30T02:10:41.145Z,3.30
2019-01-30T02:15:32.922Z,2.70
2019-01-30T02:20:24.506Z,3.20
2019-01-30T02:25:16.164Z,3.40
2019-01-30T02:30:09.797Z,4.90
2019-01-30T02:35:03.101Z,4.00
2019-01-30T02:39:54.445Z,3.60
2019-01-30T02:44:46.417Z,2.80
2019-01-30T02:49:38.248Z,2.80
2019-01-30T02:54:29.978Z,3.80
2019-01-30T02:59:21.930Z,3.80
2019-01-30T03:04:13.784Z,3.60
2019-01-30T03:09:05.550Z,2.70
2019-01-30T03:13:59.436Z,3.60
2019-01-30T03:18:50.625Z,3.40
2019-01-30T03:23:44.154Z,3.60
2019-01-30T03:28:35.237Z,3.60
2019-01-30T03:33:27.178Z,4.40
2019-01-30T03:38:18.814Z,2.80
2019-01-30T03:43:10.540Z,4.10
2019-01-30T03:48:02.285Z,3.30
2019-01-30T03:52:54.110Z,3.50
2019-01-30T03:57:45.793Z,3.60
2019-01-30T04:02:37.558Z,3.20
2019-01-30T04:07:29.502Z,4.80
2019-01-30T04:12:20.983Z,4.80
2019-01-30T04:17:13.066Z,4.90
2019-01-30T04:22:04.946Z,5.50
2019-01-30T04:26:56.670Z,4.00
2019-01-30T04:31:48.503Z,5.60
2019-01-30T04:36:39.982Z,5.30
2019-01-30T04:41:31.636Z,5.70
2019-01-30T04:46:23.678Z,4.30
2019-01-30T04:51:15.671Z,5.00
2019-01-30T04:56:07.495Z,4.60
2019-01-30T05:00:59.412Z,5.80
2019-01-30T05:05:51.178Z,3.60
2019-01-30T05:10:44.661Z,5.50
2019-01-30T05:15:35.974Z,5.40
2019-01-30T05:20:27.890Z,4.80
2019-01-30T05:25:21.546Z,6.10
2019-01-30T05:30:12.593Z,5.60
2019-01-30T05:35:04.525Z,6.10
2019-01-30T05:39:56.077Z,4.90
2019-01-30T05:44:47.771Z,8.40
2019-01-30T05:49:41.532Z,6.50
2019-01-30T05:54:32.774Z,11.70
2019-01-30T05:59:24.675Z,7.00
2019-01-30T06:04:16.571Z,5.00
2019-01-30T06:09:07.977Z,6.60
2019-01-30T06:13:59.858Z,5.80
2019-01-30T06:18:53.617Z,5.80
2019-01-30T06:23:47.024Z,5.50
2019-01-30T06:28:40.218Z,5.80
2019-01-30T06:33:34.000Z,5.40
2019-01-30T06:38:25.323Z,4.80
2019-01-30T06:43:18.846Z,5.90
2019-01-30T06:48:12.926Z,5.30
2019-01-30T06:53:03.862Z,5.90
2019-01-30T06:57:55.517Z,4.80
2019-01-30T07:02:47.337Z,5.00
2019-01-30T07:07:39.171Z,6.10
2019-01-30T07:12:30.976Z,3.90
2019-01-30T07:17:22.654Z,5.00
2019-01-30T07:22:14.140Z,6.40
2019-01-30T07:27:05.901Z,5.10
2019-01-30T07:31:57.498Z,5.40
2019-01-30T07:36:49.510Z,4.80
2019-01-30T07:41:41.266Z,3.90
2019-01-30T07:46:35.187Z,5.80
2019-01-30T07:51:26.276Z,5.20
2019-01-30T07:56:17.911Z,4.60
2019-01-30T08:01:09.581Z,4.70
2019-01-30T08:06:01.406Z,4.50
2019-01-30T08:10:53.150Z,4.90
2019-01-30T08:15:44.900Z,5.10
2019-01-30T08:20:36.831Z,6.10
2019-01-30T08:25:30.795Z,5.00
2019-01-30T08:30:24.154Z,7.10
2019-01-30T08:35:18.209Z,4.90
2019-01-30T08:40:09.255Z,5.20
2019-01-30T08:45:01.334Z,4.90
2019-01-30T08:49:53.215Z,3.90
2019-01-30T08:54:47.095Z,6.80
2019-01-30T08:59:40.236Z,5.40
2019-01-30T09:04:31.653Z,5.00
2019-01-30T09:09:23.328Z,5.20
2019-01-30T09:14:16.015Z,4.60
2019-01-30T09:19:07.521Z,5.50
2019-01-30T09:24:01.087Z,10.90
2019-01-30T09:28:52.398Z,6.00
2019-01-30T09:33:44.329Z,6.70
2019-01-30T09:38:37.966Z,6.10
2019-01-30T09:43:29.251Z,6.50
2019-01-30T09:48:20.955Z,7.20
2019-01-30T09:53:14.727Z,7.80
2019-01-30T09:58:08.246Z,7.10
2019-01-30T10:03:00.356Z,8.60
2019-01-30T10:07:52.021Z,7.80
2019-01-30T10:12:45.966Z,12.20
2019-01-30T10:17:37.949Z,7.50
2019-01-30T10:22:29.732Z,8.40
2019-01-30T10:27:22.360Z,9.10
2019-01-30T10:32:14.000Z,8.10
2019-01-30T10:37:22.234Z,11.70
2019-01-30T10:42:09.198Z,10.10
2019-01-30T10:47:00.979Z,10.10
2019-01-30T10:51:52.651Z,10.60
2019-01-30T10:56:44.448Z,10.30
2019-01-30T11:01:36.627Z,9.70
2019-01-30T11:06:28.417Z,9.80
2019-01-30T11:11:20.346Z,8.20
2019-01-30T11:16:12.019Z,9.30
2019-01-30T11:21:06.625Z,9.70
2019-01-30T11:25:57.876Z,9.30
2019-01-30T11:30:49.808Z,7.90
2019-01-30T11:35:41.567Z,8.50
2019-01-30T11:40:34.979Z,10.20
2019-01-30T11:45:26.639Z,9.00
2019-01-30T11:50:20.253Z,9.40
2019-01-30T11:55:11.598Z,8.10
2019-01-30T12:00:03.180Z,9.50
2019-01-30T12:04:54.952Z,10.70
2019-01-30T12:09:46.730Z,10.00
2019-01-30T12:14:38.306Z,8.80
2019-01-30T12:19:29.854Z,10.60
2019-01-30T12:24:21.491Z,11.50
2019-01-30T12:29:13.533Z,9.50
2019-01-30T12:34:06.139Z,10.20
2019-01-30T12:38:58.023Z,11.20
2019-01-30T12:43:51.719Z,11.20
2019-01-30T12:48:43.143Z,12.50
2019-01-30T12:53:35.352Z,12.60
2019-01-30T12:58:27.106Z,11.70
2019-01-30T13:03:19.022Z,11.10
2019-01-30T13:08:10.919Z,12.80
2019-01-30T13:13:02.590Z,10.40
2019-01-30T13:17:54.383Z,12.40
2019-01-30T13:22:46.312Z,12.60
2019-01-30T13:27:37.684Z,10.40
2019-01-30T13:32:29.152Z,12.60
2019-01-30T13:37:20.880Z,12.60
2019-01-30T13:42:12.508Z,14.50
2019-01-30T13:47:04.039Z,15.50
2019-01-30T13:51:55.939Z,15.40
2019-01-30T13:56:47.843Z,16.90
2019-01-30T14:01:39.680Z,16.40
2019-01-30T14:06:31.399Z,13.20
2019-01-30T14:11:23.122Z,15.20
2019-01-30T14:16:16.892Z,15.90
2019-01-30T14:21:08.201Z,15.10
2019-01-30T14:26:00.038Z,14.40
2019-01-30T14:30:54.047Z,16.50
2019-01-30T14:35:45.578Z,15.60
2019-01-30T14:40:37.641Z,16.30
2019-01-30T14:45:29.459Z,15.90
2019-01-30T14:50:21.090Z,17.30
2019-01-30T14:55:13.032Z,18.00
2019-01-30T15:00:04.691Z,16.10
2019-01-30T15:04:56.327Z,18.10
2019-01-30T15:09:50.239Z,19.80
2019-01-30T15:14:41.635Z,16.70
2019-01-30T15:19:33.428Z,17.50
2019-01-30T15:24:27.177Z,18.60
2019-01-30T15:29:17.286Z,18.90
2019-01-30T15:34:07.580Z,18.00
2019-01-30T15:38:58.570Z,19.20
2019-01-30T15:43:50.150Z,19.70
2019-01-30T15:48:40.183Z,20.20
2019-01-30T15:53:32.094Z,20.70
2019-01-30T15:58:24.354Z,19.80
2019-01-30T16:03:13.913Z,15.30
2019-01-30T16:08:05.913Z,19.80
2019-01-30T16:12:56.208Z,20.20
2019-01-30T16:17:46.366Z,16.50
2019-01-30T16:22:36.775Z,20.70
2019-01-30T16:27:26.897Z,18.30
2019-01-30T16:32:16.859Z,19.10
2019-01-30T16:37:07.585Z,16.50
2019-01-30T16:41:57.860Z,15.40
2019-01-30T16:46:50.868Z,16.60
2019-01-30T16:51:40.412Z,17.40
2019-01-30T16:56:32.192Z,18.30
2019-01-30T17:01:21.260Z,20.70
2019-01-30T17:06:13.647Z,19.10
2019-01-30T17:11:04.624Z,14.90
2019-01-30T17:15:58.464Z,17.20
2019-01-30T17:20:48.867Z,16.50
2019-01-30T17:25:39.930Z,21.80
2019-01-30T17:30:31.853Z,16.70
2019-01-30T17:35:23.171Z,16.90
2019-01-30T17:40:14.770Z,17.00
2019-01-30T17:45:06.450Z,16.90
2019-01-30T17:49:59.349Z,16.20
2019-01-30T17:54:50.592Z,16.90
2019-01-30T17:59:44.379Z,20.70
2019-01-30T18:04:35.918Z,18.90
2019-01-30T18:09:27.735Z,20.10
2019-01-30T18:14:19.475Z,19.40
2019-01-30T18:19:10.850Z,17.70
2019-01-30T18:24:02.619Z,16.90
2019-01-30T18:28:54.204Z,17.10
2019-01-30T18:33:48.866Z,22.00
2019-01-30T18:38:40.127Z,22.40
2019-01-30T18:43:31.883Z,20.30
2019-01-30T18:48:24.354Z,20.90
2019-01-30T18:53:19.769Z,24.10
2019-01-30T18:58:10.709Z,22.10
2019-01-30T19:03:02.355Z,22.20
2019-01-30T19:07:55.922Z,27.00
2019-01-30T19:12:46.988Z,21.30
2019-01-30T19:17:38.455Z,21.70
2019-01-30T19:22:29.912Z,22.20
2019-01-30T19:27:24.461Z,24.30
2019-01-30T19:32:17.693Z,24.60
2019-01-30T19:37:10.650Z,25.10
2019-01-30T19:42:01.854Z,19.70
2019-01-30T19:46:55.876Z,21.60
2019-01-30T19:51:46.933Z,23.20
2019-01-30T19:56:38.455Z,20.70
2019-01-30T20:01:36.092Z,23.80
2019-01-30T20:06:26.906Z,21.40
2019-01-30T20:11:18.649Z,21.90
2019-01-30T20:16:10.150Z,20.80
2019-01-30T20:21:01.747Z,19.70
2019-01-30T20:25:53.461Z,22.30
2019-01-30T20:30:45.262Z,19.40
2019-01-30T20:35:36.608Z,20.30
2019-01-30T20:40:28.383Z,19.90
2019-01-30T20:45:19.593Z,16.20
2019-01-30T20:50:11.520Z,16.60
2019-01-30T20:55:05.057Z,17.40
2019-01-30T20:59:55.635Z,16.20
2019-01-30T21:04:46.280Z,16.40
2019-01-30T21:09:37.947Z,16.60
2019-01-30T21:14:29.194Z,18.20
2019-01-30T21:19:20.365Z,17.70
2019-01-30T21:24:11.307Z,14.40
2019-01-30T21:29:01.767Z,16.40
2019-01-30T21:34:02.420Z,18.00
2019-01-30T21:39:00.366Z,20.00
2019-01-30T21:43:50.411Z,15.20
2019-01-30T21:48:39.180Z,15.70
2019-01-30T21:53:28.596Z,17.30
2019-01-30T21:58:28.656Z,21.10
2019-01-30T22:03:15.600Z,15.60
2019-01-30T22:08:05.143Z,14.50
2019-01-30T22:12:54.380Z,14.70
2019-01-30T22:17:45.813Z,16.90
2019-01-30T22:22:34.840Z,20.50
2019-01-30T22:27:26.315Z,17.40
2019-01-30T22:32:15.376Z,16.20
2019-01-30T22:37:07.179Z,16.90
2019-01-30T22:41:56.364Z,14.50
2019-01-30T22:46:54.194Z,17.20
2019-01-30T22:51:44.242Z,14.70
2019-01-30T22:56:32.330Z,15.00
2019-01-30T23:01:30.668Z,17.50
2019-01-30T23:06:19.293Z,13.90
2019-01-30T23:18:20.604Z,31.60
2019-01-30T23:23:13.354Z,21.50
2019-01-30T23:28:06.339Z,19.70
2019-01-30T23:32:59.485Z,15.20
2019-01-30T23:37:53.453Z,16.10
2019-01-30T23:42:44.386Z,14.40
2019-01-30T23:47:33.065Z,14.60
2019-01-30T23:52:24.200Z,14.90
2019-01-30T23:57:17.380Z,13.90
